Aeroporto :
LOGIN :

Iscrizione | Disclaimer

   EN    FR    IT 

 










Sommario :    VFR   VFR Marginale   IFR   IFR Intensivo   IFR Molto Intensivo
Visibilità : 
Base nubi : 
>= 8 km
>= 3000ft
5 / 8 km
1000 / 3000 ft
1500m / 5 km
500 / 1000 ft
800 / 1500m
200 / 500 ft
< 800m
< 200 ft
Simboli :   Temporali  Nebbia  Neve Forte  Precipitazioni Forti  Vento > 20 kt
SIGMETs :   Varie  Temporali  Ghiacco  Turbolenza  Onda orograficha  Ceneri Vulcaniche






- Altitudine del aeroporto : 52 ft
- Codice IATA : IOM


EGNS - Isle of Man

ULTIMO METAR :
  • 171320Z 16019KT 9999 -SHRA FEW012 SCT018CB 12/10 Q0997 TEMPO 4000 +SHRA

METARs OBSOLETI :
  • 171250Z 16021KT 3000 SHRA FEW014 SCT018CB BKN040 12/10 Q0997 NOSIG
  • 171220Z 16019KT 9999 VCSH FEW014 FEW018CB SCT022 BKN045 13/11 Q0998 TEMPO 4000 +SHRA
  • 171150Z 16021KT 9999 -SHRA FEW015 FEW018CB SCT030 13/09 Q0998 TEMPO 4000 +SHRA
  • 171120Z 16015KT 9999 FEW015 FEW018CB 13/10 Q0998 TEMPO 4000 +SHRA
  • 171050Z 17015KT 9999 -SHRA FEW013 FEW020CB SCT025 11/09 Q0999 TEMPO 4000 +SHRA

TAF TAF EGNS
Valido dal 17 a 12 ore il 17 a 21 ore UTC


171100Z 1712/1721 17020G30KT 9999 FEW020
TEMPO 1712/1721 7000 SHRA
PROB40
TEMPO 1712/1721 4000 +SHRAGS



MetMap, La meteo Aeronautica in un colpo d'occhio ! - Copyright ORBIFLY Dicembre 2007 - Disclaimer

ORBIFLY MET'MAP TEAM :

Programmazione e sviluppo : Alexandra Zaïnal
Concezione e sviluppo : Baudouin d'Aumeries
Co-Programmazione e sviluppo : Marc-Olivier Méhu
Supporto tecnico e logistico : Manuel Goepfert
Aiuto per la traduzione : Arnaldo La Scala

Contatto : metmap@orbifly.com




FONTI E CREDITI :

   NOAA